Latest Weather Observations for Ngayawili (Elcho Island)

IDD60801

Issued at 5:35 pm CST Sunday 20 April 2014 (issued every 30 minutes, with the page automatically refreshed every 10 minutes)

About weather observations | Map of weather stations | Latest weather observations for NT | Other Formats
Station Details ID: 014517 Name: NGAYAWILI Lat: -12.00 Lon: 135.57 Height: 8.1 m
Data from the previous 72 hours. | See also: Recent months at Ngayawili (Elcho Island)
Date/Time
CST
Temp
°C
App
Temp
°C
Dew
Point
Rel
Hum
%
Delta-T
°C
Wind Press
QNH
hPa
Press
MSL
hPa
Rain
since 9 am
mm
Dir
 
Spd
km/h
Gust
km/h
Spd
kts
Gust
kts
20/05:30pm 29.7 32.6 23.2 68 4.5 E 13 20 7 11 1008.6 - 0.0
20/05:00pm 30.1 33.6 23.5 67 4.6 E 11 17 6 9 1008.2 - 0.0
20/04:30pm 30.5 32.4 22.7 63 5.3 E 17 30 9 16 1008.0 - 0.0
20/04:00pm 31.1 33.0 22.7 61 5.7 E 17 28 9 15 1007.7 - 0.0
20/03:30pm 31.4 32.7 22.7 60 6.0 E 20 35 11 19 1007.4 - 0.0
20/03:00pm 31.6 33.6 22.9 60 6.0 E 17 28 9 15 1007.6 1007.5 0.0
20/02:30pm 31.6 33.0 22.6 59 6.2 E 19 30 10 16 1007.6 - 0.0
20/02:00pm 31.6 33.5 23.4 61 5.7 ENE 19 32 10 17 1007.9 - 0.0
20/01:30pm 31.4 33.8 24.3 66 5.0 E 19 30 10 16 1008.3 - 0.0
20/01:00pm 31.4 34.6 25.0 69 4.5 E 17 30 9 16 1008.6 - 0.0
20/12:30pm 30.8 35.8 26.5 78 3.1 E 13 26 7 14 1009.2 - 0.0
20/12:00pm 30.4 33.9 26.3 79 2.9 E 20 32 11 17 1009.4 1009.3 0.0
20/11:30am 30.5 34.5 26.7 80 2.7 E 19 32 10 17 1009.8 - 0.0
20/11:00am 30.1 34.3 26.5 81 2.6 E 17 28 9 15 1010.2 - 0.0
20/10:30am 29.6 32.6 26.2 82 2.4 E 22 33 12 18 1010.2 - 0.0
20/10:00am 29.5 34.4 26.9 86 1.9 ESE 15 33 8 18 1010.2 - 0.0
20/09:30am 29.1 34.6 27.8 93 0.9 ESE 15 24 8 13 1010.1 - 0.0
20/09:00am 28.0 34.2 27.7 98 0.2 SE 11 22 6 12 1010.2 1010.1 0.0
20/08:30am 26.8 32.3 26.8 100 0.0 SSE 11 17 6 9 1010.3 - 0.0
20/08:00am 26.0 31.0 26.0 100 0.0 SSE 11 17 6 9 1010.0 - 0.0
20/07:30am 25.1 29.5 25.1 100 0.0 SE 11 17 6 9 1009.7 - 0.0
20/07:00am 24.1 27.5 24.1 100 0.0 SSE 13 17 7 9 1009.4 - 0.0
20/06:30am 23.9 27.6 23.9 100 0.0 SSE 11 15 6 8 1009.1 - 0.0
20/06:00am 23.8 27.4 23.8 100 0.0 SSE 11 15 6 8 1008.9 1008.8 0.0
20/05:30am 23.8 27.4 23.8 100 0.0 SSE 11 15 6 8 1008.6 - 0.0
20/05:00am 23.8 27.8 23.8 100 0.0 SSE 9 15 5 8 1008.5 - 0.0
20/04:30am 23.9 27.2 23.9 100 0.0 SSE 13 19 7 10 1008.2 - 0.0
20/04:00am 23.8 27.4 23.8 100 0.0 SSE 11 15 6 8 1008.3 - 0.0
20/03:30am 23.8 27.4 23.8 100 0.0 SSE 11 17 6 9 1008.2 - 0.0
20/03:00am 23.8 27.4 23.8 100 0.0 SSE 11 17 6 9 1008.3 1008.2 0.0
20/02:30am 23.8 27.4 23.8 100 0.0 SSE 11 15 6 8 1008.4 - 0.0
20/02:00am 23.8 27.4 23.8 100 0.0 SSE 11 17 6 9 1008.9 - 0.0
20/01:30am 23.8 27.4 23.8 100 0.0 SSE 11 17 6 9 1009.2 - 0.0
20/01:00am 24.0 27.8 24.0 100 0.0 S 11 17 6 9 1009.5 - 0.0
20/12:30am 24.2 28.1 24.2 100 0.0 SSE 11 17 6 9 1009.8 - 0.0
20/12:00am 24.7 28.5 24.7 100 0.0 SSE 13 19 7 10 1010.0 1009.9 0.0
 
Date/Time
CST
Temp
°C
App
Temp
°C
Dew
Point
Rel
Hum
%
Delta-T
°C
Wind Press
QNH
hPa
Press
MSL
hPa
Rain
since 9 am
mm
Dir
 
Spd
km/h
Gust
km/h
Spd
kts
Gust
kts
19/11:30pm 25.0 29.7 25.0 100 0.0 SSE 9 13 5 7 1010.2 - 0.0
19/11:00pm 25.2 29.7 25.2 100 0.0 SSE 11 17 6 9 1010.4 - 0.0
19/10:30pm 25.5 30.2 25.5 100 0.0 SSE 11 17 6 9 1010.7 - 0.0
19/10:00pm 25.6 30.7 25.6 100 0.0 S 9 15 5 8 1010.8 - 0.0
19/09:30pm 25.5 30.2 25.5 100 0.0 S 11 15 6 8 1011.0 - 0.0
19/09:00pm 25.4 30.4 25.4 100 0.0 SSE 9 11 5 6 1011.0 1010.9 0.0
19/08:30pm 25.5 30.6 25.5 100 0.0 S 9 13 5 7 1010.8 - 0.0
19/08:00pm 25.5 30.6 25.5 100 0.0 S 9 15 5 8 1010.8 - 0.0
19/07:30pm 25.4 30.4 25.4 100 0.0 SSE 9 11 5 6 1010.6 - 0.0
19/07:00pm 25.4 30.8 25.4 100 0.0 SSE 7 11 4 6 1010.1 - 0.0
19/06:30pm 25.4 30.4 25.4 100 0.0 SSE 9 11 5 6 1009.8 - 0.0
19/06:00pm 25.7 31.5 25.7 100 0.0 S 6 9 3 5 1009.4 1009.3 0.0
19/05:30pm 25.8 31.4 25.8 100 0.0 S 7 11 4 6 1009.3 - 0.0
19/05:00pm 26.3 30.7 25.6 96 0.5 SSE 13 20 7 11 1009.1 - 0.0
19/04:30pm 27.4 32.5 26.2 93 0.9 ENE 11 20 6 11 1008.5 - 0.0
19/04:00pm 26.7 32.4 26.4 98 0.2 ENE 9 13 5 7 1008.2 - 0.0
19/03:30pm 27.6 32.3 25.0 86 1.8 E 9 28 5 15 1008.3 - 0.0
19/03:00pm 29.1 35.2 26.5 86 1.9 ENE 7 11 4 6 1008.3 1008.2 0.0
19/02:30pm 29.4 34.0 26.0 82 2.4 ENE 13 19 7 10 1008.5 - 0.0
19/02:00pm 29.6 34.1 26.4 83 2.3 E 15 24 8 13 1008.7 - 0.0
19/01:30pm 29.6 34.2 26.0 81 2.6 E 13 24 7 13 1009.1 - 0.0
19/01:00pm 29.9 35.3 27.1 85 2.0 E 13 22 7 12 1009.5 - 0.0
19/12:30pm 29.5 34.5 27.1 87 1.7 E 15 22 8 12 1009.7 - 0.0
19/12:00pm 29.2 34.8 27.4 90 1.3 ESE 13 26 7 14 1010.3 1010.2 0.0
19/11:30am 28.8 34.4 27.4 92 1.0 E 13 24 7 13 1010.7 - 0.0
19/11:00am 29.1 34.2 27.3 90 1.3 E 15 24 8 13 1011.1 - 0.0
19/10:30am 29.4 34.6 28.0 92 1.0 E 17 28 9 15 1011.4 - 0.0
19/10:00am 28.8 33.6 27.4 92 1.0 E 17 32 9 17 1011.5 - 0.0
19/09:30am 27.9 32.1 27.4 97 0.4 E 20 32 11 17 1011.4 - 0.0
19/09:00am 26.9 31.8 26.9 100 0.0 E 15 28 8 15 1011.4 1011.3 0.0
19/08:30am 25.7 - 25.9 - - SSE 7 11 4 6 1011.6 - 0.0
19/08:00am 24.8 - 25.0 - - SSE 7 9 4 5 1011.4 - 0.0
19/07:30am 24.0 - 24.2 - - SSE 6 7 3 4 1010.9 - 0.0
19/07:00am 23.7 28.2 23.7 100 0.0 SSE 6 6 3 3 1010.6 - 0.0
19/06:30am 23.7 28.0 23.7 100 0.0 SSE 7 11 4 6 1010.5 - 0.0
19/06:00am 23.6 27.9 23.6 100 0.0 SSE 7 11 4 6 1010.1 1010.0 0.0
19/05:30am 23.4 27.8 23.4 100 0.0 S 6 7 3 4 1010.0 - 0.0
19/05:00am 23.6 27.5 23.6 100 0.0 S 9 11 5 6 1010.1 - 0.0
19/04:30am 23.9 27.6 23.9 100 0.0 SSE 11 15 6 8 1009.8 - 0.0
19/04:00am 23.8 27.8 23.8 100 0.0 SSE 9 13 5 7 1009.9 - 0.0
19/03:30am 23.8 27.8 23.8 100 0.0 SE 9 13 5 7 1009.9 - 0.0
19/03:00am 23.9 28.0 23.9 100 0.0 SE 9 17 5 9 1009.9 1009.8 0.0
19/02:30am 23.9 28.0 23.9 100 0.0 SE 9 15 5 8 1010.1 - 0.0
19/02:00am 23.8 27.8 23.8 100 0.0 SSE 9 11 5 6 1010.2 - 0.0
19/01:30am 24.0 28.1 24.0 100 0.0 SSE 9 11 5 6 1010.3 - 0.0
19/01:00am 24.0 28.5 24.0 100 0.0 SE 7 13 4 7 1010.6 - 0.0
19/12:30am 23.9 26.8 23.9 100 0.0 SE 15 20 8 11 1011.0 - 0.0
19/12:00am 23.9 26.8 23.9 100 0.0 SSE 15 22 8 12 1011.4 1011.3 0.0
 
Date/Time
CST
Temp
°C
App
Temp
°C
Dew
Point
Rel
Hum
%
Delta-T
°C
Wind Press
QNH
hPa
Press
MSL
hPa
Rain
since 9 am
mm
Dir
 
Spd
km/h
Gust
km/h
Spd
kts
Gust
kts
18/11:30pm 23.8 26.3 23.8 100 0.0 SSE 17 22 9 12 1011.6 - 0.0
18/11:00pm 24.0 27.0 24.0 100 0.0 SSE 15 22 8 12 1011.8 - 0.0
18/10:30pm 24.1 27.5 24.1 100 0.0 SSE 13 19 7 10 1012.1 - 0.0
18/10:00pm 24.1 27.5 24.1 100 0.0 SSE 13 20 7 11 1012.4 - 0.0
18/09:30pm 24.2 27.7 24.2 100 0.0 SSE 13 22 7 12 1012.7 - 0.0
18/09:00pm 24.6 29.1 24.6 100 0.0 ESE 9 11 5 6 1012.7 1012.6 0.0
18/08:30pm 24.4 29.3 24.4 100 0.0 ENE 6 7 3 4 1012.6 - 0.0
18/08:00pm 24.1 28.9 24.1 100 0.0 ENE 6 7 3 4 1012.6 - 0.0
18/07:30pm 24.1 28.9 24.1 100 0.0 ENE 6 9 3 5 1012.3 - 0.0
18/07:00pm 24.1 28.7 24.1 100 0.0 ENE 7 9 4 5 1011.8 - 0.0
18/06:30pm 24.1 28.7 24.1 100 0.0 ENE 7 7 4 4 1011.3 - 0.0
18/06:00pm 24.2 28.8 24.2 100 0.0 ENE 7 9 4 5 1011.1 1011.0 0.0
18/05:30pm 24.3 29.0 24.3 100 0.0 ENE 7 9 4 5 1011.1 - 0.0
18/05:00pm 24.4 29.2 24.4 100 0.0 ENE 7 11 4 6 1011.2 - 0.0
18/04:30pm 24.3 29.0 24.3 100 0.0 E 7 11 4 6 1010.9 - 0.0
18/04:00pm 24.4 29.2 24.4 100 0.0 E 7 11 4 6 1010.5 - 0.0
18/03:30pm 24.5 28.9 24.5 100 0.0 E 9 13 5 7 1010.5 - 0.0
18/03:00pm 24.3 29.0 24.3 100 0.0 E 7 13 4 7 1010.1 1010.0 0.0
18/02:30pm 23.9 26.5 23.9 100 0.0 NE 17 28 9 15 1010.5 - 0.0
18/02:05pm 26.4 27.5 25.0 92 1.0 NNE 28 43 15 23 1010.3 - 0.0
18/02:00pm 28.1 33.4 26.5 91 1.1 E 11 17 6 9 1010.3 - 0.0
18/01:30pm 28.3 33.8 26.7 91 1.1 ESE 11 19 6 10 1010.2 - 0.0
18/01:00pm 28.1 34.0 26.7 92 1.0 E 9 19 5 10 1010.1 - 0.0
18/12:30pm 27.6 32.4 26.2 92 1.0 E 13 24 7 13 1010.4 - 0.0
18/12:00pm 27.6 32.2 26.5 94 0.8 ESE 15 20 8 11 1011.2 1011.1 0.0
18/11:30am 27.4 33.0 27.4 100 0.0 E 13 20 7 11 1011.8 - 0.0
18/11:00am 26.2 31.3 26.2 100 0.0 E 11 17 6 9 1011.8 - 0.0
18/10:30am 25.4 30.4 25.4 100 0.0 E 9 15 5 8 1011.9 - 0.0
18/10:00am 25.2 29.3 25.2 100 0.0 E 13 22 7 12 1011.7 - 0.0
18/09:30am 25.2 29.3 25.2 100 0.0 E 13 24 7 13 1011.5 - 0.0
18/09:00am 26.4 31.3 26.4 100 0.0 S 13 17 7 9 1011.3 1011.2 0.0
18/08:30am 26.0 31.4 26.0 100 0.0 SSE 9 13 5 7 1011.3 - 0.0
18/08:00am 25.9 31.2 25.9 100 0.0 SE 9 15 5 8 1011.2 - 0.0
18/07:30am 25.4 30.4 25.4 100 0.0 SE 9 13 5 7 1010.9 - 0.0
18/07:00am 25.0 29.7 25.0 100 0.0 ESE 9 13 5 7 1010.4 - 0.0
18/06:30am 24.8 29.4 24.8 100 0.0 E 9 15 5 8 1010.0 - 0.0
18/06:00am 24.8 29.4 24.8 100 0.0 ESE 9 15 5 8 1009.6 1009.5 0.0
18/05:30am 24.8 29.0 24.8 100 0.0 SE 11 15 6 8 1009.3 - 0.0
18/05:00am 24.9 29.6 24.9 100 0.0 SE 9 15 5 8 1009.5 - 0.0
18/04:30am 24.9 29.2 24.9 100 0.0 SE 11 17 6 9 1009.4 - 0.0
18/04:00am 24.9 28.8 24.9 100 0.0 SSE 13 20 7 11 1009.6 - 0.0
18/03:30am 25.0 28.6 25.0 100 0.0 SSE 15 20 8 11 1009.7 - 0.0
18/03:00am 25.1 29.1 25.1 100 0.0 SSE 13 17 7 9 1009.7 1009.6 0.0
18/02:30am 25.0 29.4 25.0 100 0.0 ESE 11 17 6 9 1009.7 - 0.0
18/02:00am 25.1 29.9 25.1 100 0.0 SE 9 13 5 7 1010.0 - 0.0
18/01:30am 25.3 29.5 25.3 100 0.0 SE 13 19 7 10 1010.7 - 0.0
18/01:00am 25.3 29.9 25.3 100 0.0 SSE 11 17 6 9 1011.1 - 0.0
18/12:30am 25.3 30.2 25.3 100 0.0 SE 9 13 5 7 1011.3 - 0.0
18/12:00am 25.3 30.6 25.3 100 0.0 E 7 11 4 6 1011.4 1011.3 0.0
 
Date/Time
CST
Temp
°C
App
Temp
°C
Dew
Point
Rel
Hum
%
Delta-T
°C
Wind Press
QNH
hPa
Press
MSL
hPa
Rain
since 9 am
mm
Dir
 
Spd
km/h
Gust
km/h
Spd
kts
Gust
kts
17/11:30pm 25.1 29.9 25.1 100 0.0 E 9 11 5 6 1011.6 - 0.0
17/11:00pm 24.8 29.4 24.8 100 0.0 E 9 11 5 6 1011.7 - 0.0
17/10:30pm 25.0 29.0 25.0 100 0.0 E 13 19 7 10 1011.9 - 0.0
17/10:00pm 26.1 30.8 26.1 100 0.0 ESE 13 22 7 12 1011.8 - 0.0
17/09:30pm 25.8 31.1 25.8 100 0.0 ESE 9 13 5 7 1011.6 - 0.0
17/09:00pm 26.0 30.2 26.0 100 0.0 SE 15 20 8 11 1011.4 1011.3 0.0
17/08:30pm 26.1 31.2 26.1 100 0.0 SSE 11 19 6 10 1011.4 - 0.0
17/08:00pm 26.0 30.6 26.0 100 0.0 SE 13 17 7 9 1010.8 - 0.0
17/07:30pm 26.1 31.0 25.9 99 0.1 SSE 11 17 6 9 1010.2 - 0.0
17/07:00pm 26.1 30.6 25.8 98 0.2 SSE 13 17 7 9 1009.8 - 0.0
17/06:30pm 26.6 31.4 25.7 95 0.6 SSE 11 13 6 7 1009.6 - 0.0
17/06:00pm 26.9 31.8 25.9 94 0.7 SSE 11 15 6 8 1009.2 1009.1 0.0

Other Formats:

Comma delimited format used in spreadsheet applications
http://www.bom.gov.au/fwo/IDD60801/IDD60801.95146.axf

JavaScript Object Notation format (JSON) in row-major order
http://www.bom.gov.au/fwo/IDD60801/IDD60801.95146.json